CheckWX is a tool to help pilots better visualize weather data.  It is not intended as a substitute for an official pre-flight weather briefing.

03:15:19 UTC

PASK METAR
Selawik Airport
Selawik, Alaska, USA
Current

19 mins ago

PASK 170256Z AUTO 06016KT 10SM CLR M22/M26 A2997 RMK AO2 SLP144 6//// T12221261 FZRANO
Observed
Feb-17 @ 02:56 UTC
Wind
  • 060° at 16 KTS
Visibility
10 SM
Flight Rules
VFR
Cloud Levels
  • Clear skies
Temperature
-22°C / -8°F
Dewpoint
-26°C / -15°F
Humidity
70%
Altimeter
29.97" Hg
Pressure
1014.92 hPa
Previous

1 hour ago

PASK 170156Z AUTO 06017KT 10SM CLR M22/M26 A2997 RMK AO2 SLP147 T12171261 FZRANO
Observed
Feb-17 @ 01:56 UTC
Wind
  • 060° at 17 KTS
Visibility
10 SM
Flight Rules
VFR
Cloud Levels
  • Clear skies
Temperature
-22°C / -8°F
Dewpoint
-26°C / -15°F
Humidity
70%
Altimeter
29.97" Hg
Pressure
1014.92 hPa
Previous

2 hours ago

PASK 170056Z AUTO 07017KT 10SM CLR M22/M26 A2999 RMK AO2 SLP151 T12171261 FZRANO
Observed
Feb-17 @ 00:56 UTC
Wind
  • 070° at 17 KTS
Visibility
10 SM
Flight Rules
VFR
Cloud Levels
  • Clear skies
Temperature
-22°C / -8°F
Dewpoint
-26°C / -15°F
Humidity
70%
Altimeter
29.99" Hg
Pressure
1015.62 hPa